Time;durP1;ratioP1;P1;durP2;ratioP2;P2;SDS_P1;SDS_P2;PMS_P1;PMS_P2;Temp;Humidity;BMP_temperature;BMP_pressure;BME280_temperature;BME280_humidity;BME280_pressure;Samples;Min_cycle;Max_cycle;Signal;HPM_P1;HPM_P2
2024/01/05 00:00:08;;;;;;;11.02;4.07;;;5.70;99.90;;;;;;5011367;28;20049;-48
2024/01/05 00:02:35;;;;;;;8.18;3.70;;;5.70;99.90;;;;;;5015641;28;20045;-52
2024/01/05 00:05:02;;;;;;;11.13;3.80;;;5.70;99.90;;;;;;5012923;28;20073;-52
2024/01/05 00:07:30;;;;;;;8.45;3.78;;;5.70;99.90;;;;;;5014875;28;20077;-49
2024/01/05 00:09:57;;;;;;;11.93;3.50;;;5.70;99.90;;;;;;5011145;28;20049;-48
2024/01/05 00:12:24;;;;;;;10.18;4.13;;;5.80;99.90;;;;;;5008849;28;20164;-51
2024/01/05 00:14:50;;;;;;;8.80;3.40;;;5.80;99.90;;;;;;5015590;28;20537;-50
2024/01/05 00:17:17;;;;;;;10.93;3.50;;;5.80;99.90;;;;;;5017605;28;20492;-48
2024/01/05 00:19:44;;;;;;;10.60;3.95;;;5.80;99.90;;;;;;5014565;28;20136;-51
2024/01/05 00:22:11;;;;;;;9.23;3.85;;;5.80;99.90;;;;;;5015332;28;20041;-50
2024/01/05 00:24:38;;;;;;;10.85;3.92;;;5.80;99.90;;;;;;5012733;28;20037;-48
2024/01/05 00:27:05;;;;;;;8.43;3.58;;;5.80;99.90;;;;;;5014161;28;20111;-52
2024/01/05 00:29:32;;;;;;;8.63;3.47;;;5.70;99.90;;;;;;5015576;28;20052;-52
2024/01/05 00:31:59;;;;;;;8.63;3.50;;;5.70;99.90;;;;;;5015300;28;20045;-50
2024/01/05 00:34:26;;;;;;;9.85;4.25;;;5.70;99.90;;;;;;5014474;28;20050;-53
2024/01/05 00:36:53;;;;;;;9.65;4.05;;;5.80;99.90;;;;;;5014644;28;20054;-49
2024/01/05 00:39:20;;;;;;;7.93;3.53;;;5.70;99.90;;;;;;5015091;28;20173;-51
2024/01/05 00:41:47;;;;;;;9.05;3.55;;;5.80;99.90;;;;;;5016494;28;20041;-51
2024/01/05 00:44:15;;;;;;;10.65;3.85;;;5.80;99.90;;;;;;5013543;28;20525;-51
2024/01/05 00:46:42;;;;;;;7.90;3.40;;;5.70;99.90;;;;;;5018256;28;20587;-51
2024/01/05 00:49:09;;;;;;;10.32;3.55;;;5.70;99.90;;;;;;5008874;28;20041;-52
2024/01/05 00:51:36;;;;;;;8.32;3.88;;;5.70;99.90;;;;;;5013177;28;20054;-52
2024/01/05 00:54:03;;;;;;;11.75;3.42;;;5.60;99.90;;;;;;5012785;28;20155;-52
2024/01/05 00:56:30;;;;;;;7.88;3.33;;;5.60;99.90;;;;;;5010326;28;20559;-52
2024/01/05 00:58:57;;;;;;;12.02;3.78;;;5.50;99.90;;;;;;5012665;28;20050;-53
2024/01/05 01:01:24;;;;;;;13.13;3.55;;;5.40;99.90;;;;;;5014812;28;20049;-53
2024/01/05 01:03:51;;;;;;;11.70;3.88;;;5.40;99.90;;;;;;5016141;28;20356;-51
2024/01/05 01:06:18;;;;;;;7.90;3.38;;;5.40;99.90;;;;;;5012602;28;20128;-52
2024/01/05 01:08:45;;;;;;;9.35;3.13;;;5.30;99.90;;;;;;5014749;28;20068;-55
2024/01/05 01:11:16;;;;;;;9.90;2.88;;;5.30;99.90;;;;;;5011623;28;20100;-52
2024/01/05 01:13:44;;;;;;;8.73;3.13;;;5.30;99.90;;;;;;5014039;28;20172;-52
2024/01/05 01:16:11;;;;;;;7.97;3.05;;;5.20;99.90;;;;;;5016676;28;20173;-48
2024/01/05 01:18:38;;;;;;;11.40;2.92;;;5.20;99.90;;;;;;5015417;28;20116;-51
2024/01/05 01:21:06;;;;;;;8.63;3.13;;;5.20;99.90;;;;;;5015723;28;20037;-54
2024/01/05 01:23:33;;;;;;;9.95;3.33;;;5.20;99.90;;;;;;5012885;28;20513;-53
2024/01/05 01:26:00;;;;;;;5.32;2.78;;;5.10;99.90;;;;;;5015998;28;20120;-52
2024/01/05 01:28:28;;;;;;;5.35;2.75;;;5.20;99.90;;;;;;5013207;28;20072;-49
2024/01/05 01:30:55;;;;;;;8.68;3.20;;;5.20;99.90;;;;;;5017996;28;20168;-50
2024/01/05 01:33:23;;;;;;;9.18;2.85;;;5.20;99.90;;;;;;5021302;28;20099;-53
2024/01/05 01:35:50;;;;;;;8.45;2.75;;;5.20;99.90;;;;;;5021064;28;20050;-52
2024/01/05 01:38:17;;;;;;;8.07;3.58;;;5.20;99.90;;;;;;5022031;28;20120;-53
2024/01/05 01:40:47;;;;;;;8.20;2.97;;;5.20;99.90;;;;;;5015785;28;20136;-53
2024/01/05 01:43:27;;;;;;;8.50;3.17;;;5.10;99.90;;;;;;5016305;28;20050;-53
2024/01/05 01:45:57;;;;;;;10.05;3.17;;;5.20;99.90;;;;;;5015821;28;20331;-52
2024/01/05 01:48:25;;;;;;;11.30;3.50;;;5.20;99.90;;;;;;5016352;28;20046;-51
2024/01/05 01:50:55;;;;;;;8.38;3.13;;;5.10;99.90;;;;;;5013503;28;20049;-54
2024/01/05 01:53:24;;;;;;;10.25;3.00;;;5.10;99.90;;;;;;5014802;28;20234;-51
2024/01/05 01:55:52;;;;;;;6.25;2.67;;;5.10;99.90;;;;;;5016873;28;20042;-54
2024/01/05 01:58:21;;;;;;;7.40;2.83;;;5.10;99.90;;;;;;5015102;28;20049;-49
2024/01/05 02:00:49;;;;;;;9.98;2.85;;;5.10;99.90;;;;;;5013608;28;20414;-49
2024/01/05 02:03:17;;;;;;;8.48;2.90;;;5.10;99.90;;;;;;5015460;28;20046;-53
2024/01/05 02:05:47;;;;;;;7.55;2.75;;;5.00;99.90;;;;;;5009060;28;20502;-50
2024/01/05 02:08:14;;;;;;;9.38;2.53;;;4.90;99.90;;;;;;5014065;28;20474;-51
2024/01/05 02:10:41;;;;;;;8.88;2.78;;;4.90;99.90;;;;;;5013611;28;20050;-52
2024/01/05 02:13:09;;;;;;;10.05;2.70;;;4.90;99.90;;;;;;5016910;28;20050;-55
2024/01/05 02:15:36;;;;;;;8.07;2.83;;;4.80;99.90;;;;;;5012866;28;20053;-56
2024/01/05 02:18:23;;;;;;;6.68;2.42;;;4.80;99.90;;;;;;5013833;28;20268;-49
2024/01/05 02:20:50;;;;;;;9.68;3.20;;;4.80;99.90;;;;;;5014715;28;20112;-52
2024/01/05 02:23:26;;;;;;;7.85;2.90;;;4.70;99.90;;;;;;5012759;28;20129;-51
2024/01/05 02:25:56;;;;;;;7.07;2.50;;;4.70;99.90;;;;;;5012329;28;20061;-48
2024/01/05 02:28:24;;;;;;;9.25;2.78;;;4.70;99.90;;;;;;5012984;28;20482;-55
2024/01/05 02:30:55;;;;;;;8.23;2.40;;;4.60;99.90;;;;;;5017264;28;20046;-51
2024/01/05 02:33:23;;;;;;;7.68;2.72;;;4.50;99.90;;;;;;5012080;28;20049;-50
2024/01/05 02:35:50;;;;;;;8.70;3.00;;;4.60;99.90;;;;;;5012018;28;20044;-52
2024/01/05 02:38:17;;;;;;;9.45;2.83;;;4.50;99.90;;;;;;5015105;28;20034;-50
2024/01/05 02:40:44;;;;;;;5.93;2.53;;;4.50;99.90;;;;;;5012300;28;20071;-54
2024/01/05 02:43:11;;;;;;;7.05;2.80;;;4.50;99.90;;;;;;5005822;28;20074;-49
2024/01/05 02:45:38;;;;;;;6.90;2.58;;;4.50;99.90;;;;;;5011916;28;20077;-49
2024/01/05 02:48:05;;;;;;;6.32;2.70;;;4.50;99.90;;;;;;5015056;28;20410;-49
2024/01/05 02:50:33;;;;;;;9.45;2.85;;;4.40;99.90;;;;;;5014370;28;20206;-51
2024/01/05 02:53:00;;;;;;;8.50;3.13;;;4.50;99.90;;;;;;5012194;28;20045;-50
2024/01/05 02:55:26;;;;;;;5.43;2.20;;;4.40;99.90;;;;;;5014499;28;20160;-50
2024/01/05 02:57:53;;;;;;;5.93;2.42;;;4.50;99.90;;;;;;5010014;28;20058;-52
2024/01/05 03:00:20;;;;;;;9.85;2.63;;;4.50;99.90;;;;;;5013051;28;20599;-52
2024/01/05 03:02:47;;;;;;;7.95;2.40;;;4.50;99.90;;;;;;5017280;28;20471;-52
2024/01/05 03:05:14;;;;;;;9.38;2.83;;;4.50;99.90;;;;;;5006220;28;20050;-50
2024/01/05 03:07:42;;;;;;;7.82;2.83;;;4.50;99.90;;;;;;5013580;28;20036;-49
2024/01/05 03:10:09;;;;;;;5.45;2.45;;;4.60;99.90;;;;;;5010463;28;20515;-50
2024/01/05 03:12:36;;;;;;;7.57;2.42;;;4.60;99.90;;;;;;5014343;28;20128;-49
2024/01/05 03:15:03;;;;;;;8.23;2.72;;;4.60;99.90;;;;;;5014207;28;20416;-51
2024/01/05 03:17:31;;;;;;;8.85;2.63;;;4.70;99.90;;;;;;5014458;28;20041;-51
2024/01/05 03:19:58;;;;;;;8.63;2.45;;;4.70;99.90;;;;;;5010354;28;20046;-51
2024/01/05 03:22:25;;;;;;;6.18;2.45;;;4.70;99.90;;;;;;5011526;28;20046;-50
2024/01/05 03:24:55;;;;;;;7.18;2.50;;;4.70;99.90;;;;;;5015863;28;20038;-55
2024/01/05 03:27:22;;;;;;;6.50;2.55;;;4.70;99.90;;;;;;5013968;28;20068;-54
2024/01/05 03:29:49;;;;;;;6.78;2.28;;;4.70;99.90;;;;;;5016017;28;20132;-48
2024/01/05 03:32:16;;;;;;;9.57;2.78;;;4.70;99.90;;;;;;5014009;28;20071;-52
2024/01/05 03:34:43;;;;;;;5.90;2.50;;;4.70;99.90;;;;;;5012260;28;20038;-54
2024/01/05 03:37:10;;;;;;;6.60;2.95;;;4.70;99.90;;;;;;5009891;28;20353;-55
2024/01/05 03:39:37;;;;;;;8.98;2.55;;;4.80;99.90;;;;;;5009694;28;20130;-52
2024/01/05 03:42:04;;;;;;;12.98;4.43;;;4.70;99.90;;;;;;5008920;28;20044;-52
2024/01/05 03:44:31;;;;;;;9.63;3.40;;;4.70;99.90;;;;;;5007314;28;20050;-50
2024/01/05 03:46:58;;;;;;;8.63;3.13;;;4.70;99.90;;;;;;5015406;28;20057;-49
2024/01/05 03:49:26;;;;;;;7.28;2.60;;;4.80;99.90;;;;;;5013585;28;20542;-51
2024/01/05 03:51:53;;;;;;;8.48;2.72;;;4.80;99.90;;;;;;5018163;28;20062;-50
2024/01/05 03:54:20;;;;;;;5.95;2.80;;;4.90;99.90;;;;;;5014042;28;20100;-51
2024/01/05 03:56:47;;;;;;;8.07;3.13;;;4.80;99.90;;;;;;5018817;28;20049;-52
2024/01/05 03:59:14;;;;;;;6.95;2.47;;;4.90;99.90;;;;;;5017964;28;20061;-47
2024/01/05 04:01:43;;;;;;;6.95;2.60;;;4.80;99.90;;;;;;5015985;28;20038;-54
2024/01/05 04:04:10;;;;;;;10.68;2.50;;;4.90;99.90;;;;;;5011002;28;20142;-53
2024/01/05 04:06:37;;;;;;;8.18;2.78;;;4.80;99.90;;;;;;5017309;28;20046;-53
2024/01/05 04:09:04;;;;;;;9.15;2.72;;;4.80;99.90;;;;;;5009351;28;20119;-50
2024/01/05 04:11:33;;;;;;;7.00;2.67;;;4.80;99.90;;;;;;5015732;28;20038;-52
2024/01/05 04:14:00;;;;;;;7.15;2.40;;;4.70;99.90;;;;;;5017845;28;20554;-51
2024/01/05 04:16:27;;;;;;;9.57;3.00;;;4.70;99.90;;;;;;5012486;28;20164;-52
2024/01/05 04:18:54;;;;;;;7.82;2.88;;;4.70;99.90;;;;;;5018158;28;20260;-50
2024/01/05 04:21:21;;;;;;;11.82;2.70;;;4.70;99.90;;;;;;5012877;28;20045;-55
2024/01/05 04:23:48;;;;;;;8.43;2.60;;;4.70;99.90;;;;;;5009777;28;20611;-56
2024/01/05 04:26:15;;;;;;;7.28;2.70;;;4.70;99.90;;;;;;5016879;28;20120;-49
2024/01/05 04:28:42;;;;;;;7.20;2.88;;;4.70;99.90;;;;;;5012486;28;20049;-50
2024/01/05 04:31:09;;;;;;;7.97;3.10;;;4.70;99.90;;;;;;5016326;28;20050;-53
2024/01/05 04:33:36;;;;;;;8.30;2.60;;;4.70;99.90;;;;;;5016429;28;20537;-54
2024/01/05 04:36:04;;;;;;;9.43;2.83;;;4.60;99.90;;;;;;5007848;28;20470;-53
2024/01/05 04:38:34;;;;;;;6.68;2.60;;;4.70;99.90;;;;;;5015665;28;20171;-51
2024/01/05 04:41:02;;;;;;;13.35;3.03;;;4.70;99.90;;;;;;5013645;28;20062;-52
2024/01/05 04:43:29;;;;;;;7.38;2.50;;;4.70;99.90;;;;;;5008701;28;20104;-52
2024/01/05 04:45:55;;;;;;;9.63;2.65;;;4.60;99.90;;;;;;5017779;28;20130;-52
2024/01/05 04:48:22;;;;;;;6.50;2.72;;;4.60;99.90;;;;;;5015432;28;20041;-51
2024/01/05 04:50:50;;;;;;;12.57;3.20;;;4.70;99.90;;;;;;5012105;28;20080;-51
2024/01/05 04:53:17;;;;;;;10.40;3.00;;;4.60;99.90;;;;;;5015480;28;20056;-54
2024/01/05 04:55:44;;;;;;;6.38;2.88;;;4.70;99.90;;;;;;5005487;28;20170;-54
2024/01/05 04:58:11;;;;;;;8.35;3.05;;;4.70;99.90;;;;;;5017095;28;20049;-55
2024/01/05 05:00:38;;;;;;;8.07;3.05;;;4.60;99.90;;;;;;5011285;28;20076;-52
2024/01/05 05:03:05;;;;;;;6.88;2.83;;;4.60;99.90;;;;;;5011467;28;20034;-52
2024/01/05 05:05:32;;;;;;;6.10;2.70;;;4.50;99.90;;;;;;5008930;28;20475;-51
2024/01/05 05:07:59;;;;;;;9.50;2.90;;;4.50;99.90;;;;;;5018727;28;20048;-52
2024/01/05 05:10:26;;;;;;;5.97;2.55;;;4.50;99.90;;;;;;5014274;28;20157;-55
2024/01/05 05:12:53;;;;;;;8.77;3.10;;;4.50;99.90;;;;;;5016648;28;20061;-52
2024/01/05 05:15:20;;;;;;;7.22;2.60;;;4.50;99.90;;;;;;5012812;28;20461;-53
2024/01/05 05:17:47;;;;;;;6.25;2.63;;;4.50;99.90;;;;;;5015703;28;20367;-49
2024/01/05 05:20:17;;;;;;;8.45;2.92;;;4.50;99.90;;;;;;5012407;28;20045;-50
2024/01/05 05:22:43;;;;;;;10.35;3.05;;;4.50;99.90;;;;;;5011431;28;20034;-54
2024/01/05 05:25:10;;;;;;;8.05;2.88;;;4.50;99.90;;;;;;5008052;28;20041;-53
2024/01/05 05:27:37;;;;;;;6.65;3.17;;;4.50;99.90;;;;;;5006728;28;20511;-51
2024/01/05 05:30:06;;;;;;;9.52;3.53;;;4.40;99.90;;;;;;5013422;28;20052;-50
2024/01/05 05:32:33;;;;;;;8.55;3.22;;;4.40;99.90;;;;;;5009458;28;20042;-50
2024/01/05 05:35:00;;;;;;;8.90;3.30;;;4.40;99.90;;;;;;5015281;28;20095;-54
2024/01/05 05:37:27;;;;;;;13.27;3.70;;;4.40;99.90;;;;;;5011516;28;20116;-53
2024/01/05 05:39:54;;;;;;;8.13;3.08;;;4.40;99.90;;;;;;5012653;28;20168;-54
2024/01/05 05:42:21;;;;;;;6.57;2.92;;;4.30;99.90;;;;;;5012340;28;20121;-54
2024/01/05 05:44:48;;;;;;;10.90;3.28;;;4.30;99.90;;;;;;5015346;28;20045;-51
2024/01/05 05:47:14;;;;;;;8.57;3.17;;;4.30;99.90;;;;;;5013625;28;20125;-50
2024/01/05 05:49:41;;;;;;;8.63;3.28;;;4.30;99.90;;;;;;5014996;28;20511;-51
2024/01/05 05:52:08;;;;;;;9.13;3.20;;;4.30;99.90;;;;;;5011231;28;20041;-51
2024/01/05 05:54:35;;;;;;;7.07;3.17;;;4.30;99.90;;;;;;5016091;28;20045;-52
2024/01/05 05:57:05;;;;;;;6.63;3.20;;;4.30;99.90;;;;;;5007947;28;20435;-51
2024/01/05 05:59:32;;;;;;;5.72;2.90;;;4.30;99.90;;;;;;5008179;28;20475;-49
2024/01/05 06:01:59;;;;;;;10.00;2.80;;;4.30;99.90;;;;;;5041767;28;20129;-50
2024/01/05 06:04:26;;;;;;;12.05;3.42;;;4.30;99.90;;;;;;5007682;28;20052;-50
2024/01/05 06:06:53;;;;;;;6.68;3.33;;;4.30;99.90;;;;;;5014850;28;20057;-50
2024/01/05 06:09:20;;;;;;;8.18;2.88;;;4.30;99.90;;;;;;5004164;28;20460;-49
2024/01/05 06:11:47;;;;;;;6.45;2.90;;;4.40;99.90;;;;;;5013963;28;20049;-49
2024/01/05 06:14:14;;;;;;;9.43;3.33;;;4.40;99.90;;;;;;5012948;28;20565;-48
2024/01/05 06:16:41;;;;;;;8.18;3.35;;;4.40;99.90;;;;;;5012144;28;20443;-52
2024/01/05 06:19:09;;;;;;;7.70;2.88;;;4.40;99.90;;;;;;5013685;28;20104;-52
2024/01/05 06:21:36;;;;;;;9.02;3.35;;;4.40;99.90;;;;;;5010208;28;20133;-49
2024/01/05 06:24:03;;;;;;;8.35;3.10;;;4.40;99.90;;;;;;5011890;28;20045;-52
2024/01/05 06:26:31;;;;;;;8.43;2.80;;;4.40;99.90;;;;;;5009381;28;20050;-53
2024/01/05 06:28:58;;;;;;;7.18;2.63;;;4.40;99.90;;;;;;5014787;28;20081;-49
2024/01/05 06:31:25;;;;;;;10.98;3.08;;;4.40;99.90;;;;;;5008227;28;20050;-52
2024/01/05 06:33:52;;;;;;;5.57;2.58;;;4.40;99.90;;;;;;5015274;28;20046;-50
2024/01/05 06:36:19;;;;;;;11.00;2.85;;;4.40;99.90;;;;;;5011677;28;20120;-52
2024/01/05 06:38:46;;;;;;;8.15;2.75;;;4.40;99.90;;;;;;5014298;28;20066;-50
2024/01/05 06:41:13;;;;;;;6.60;3.60;;;4.40;99.90;;;;;;5012180;28;20052;-52
2024/01/05 06:43:40;;;;;;;6.28;3.03;;;4.40;99.90;;;;;;5016030;28;20050;-46
2024/01/05 06:46:07;;;;;;;10.23;3.10;;;4.30;99.90;;;;;;5013094;28;20042;-52
2024/01/05 06:48:34;;;;;;;7.72;3.47;;;4.30;99.90;;;;;;5012768;28;20042;-48
2024/01/05 06:51:02;;;;;;;11.80;3.47;;;4.30;99.90;;;;;;5012536;28;20042;-51
2024/01/05 06:53:29;;;;;;;12.60;3.50;;;4.30;99.90;;;;;;5013625;28;20053;-53
2024/01/05 06:55:56;;;;;;;11.50;2.95;;;4.20;99.90;;;;;;5017885;28;20070;-51
2024/01/05 06:58:23;;;;;;;8.48;2.88;;;4.20;99.90;;;;;;5016823;28;20367;-51
2024/01/05 07:00:51;;;;;;;7.97;3.40;;;4.20;99.90;;;;;;5006723;28;20241;-47
2024/01/05 07:03:18;;;;;;;6.43;3.00;;;4.20;99.90;;;;;;5013723;28;20040;-50
2024/01/05 07:05:46;;;;;;;8.32;2.80;;;4.10;99.90;;;;;;5008392;28;20073;-49
2024/01/05 07:08:13;;;;;;;7.65;3.03;;;4.10;99.90;;;;;;5012536;28;20583;-51
2024/01/05 07:10:40;;;;;;;7.88;3.28;;;4.10;99.90;;;;;;5011981;28;20372;-50
2024/01/05 07:13:07;;;;;;;9.75;3.78;;;4.00;99.90;;;;;;5010828;28;20096;-49
2024/01/05 07:15:34;;;;;;;9.43;3.45;;;4.10;99.90;;;;;;5011448;28;20515;-54
2024/01/05 07:18:03;;;;;;;12.27;3.00;;;4.00;99.90;;;;;;5015093;28;20059;-52
2024/01/05 07:20:30;;;;;;;6.68;2.70;;;4.00;99.90;;;;;;5011552;28;20380;-49
2024/01/05 07:22:57;;;;;;;6.75;3.00;;;4.00;99.90;;;;;;5014020;28;20049;-53
2024/01/05 07:25:24;;;;;;;10.32;3.28;;;4.00;99.90;;;;;;5009808;28;20076;-52
2024/01/05 07:27:51;;;;;;;9.93;3.25;;;4.00;99.90;;;;;;5038368;28;20069;-52
2024/01/05 07:30:18;;;;;;;7.60;2.40;;;4.00;99.90;;;;;;5013616;28;20076;-54
2024/01/05 07:33:05;;;;;;;7.65;3.10;;;4.10;99.90;;;;;;5007407;28;20050;-51
2024/01/05 07:35:33;;;;;;;6.15;2.50;;;4.10;99.90;;;;;;5011951;28;20045;-53
2024/01/05 07:38:00;;;;;;;10.70;2.70;;;4.10;99.90;;;;;;5010172;28;20049;-55
2024/01/05 07:40:29;;;;;;;4.97;2.78;;;4.10;99.90;;;;;;5010657;28;20491;-52
2024/01/05 07:42:56;;;;;;;7.45;2.88;;;4.20;99.90;;;;;;5012655;28;20046;-51
2024/01/05 07:45:22;;;;;;;8.35;3.10;;;4.20;99.90;;;;;;5012702;28;20584;-50
2024/01/05 07:47:57;;;;;;;6.80;2.87;;;4.20;99.90;;;;;;5010940;28;20479;-52
2024/01/05 07:50:24;;;;;;;9.57;3.67;;;4.20;99.90;;;;;;5012832;28;20050;-50
2024/01/05 07:52:51;;;;;;;7.47;2.70;;;4.20;99.90;;;;;;5010279;28;20495;-47
2024/01/05 07:55:19;;;;;;;6.30;2.60;;;4.30;99.90;;;;;;5012039;28;20060;-48
2024/01/05 07:57:46;;;;;;;6.88;2.40;;;4.30;99.90;;;;;;5013476;28;20060;-49
2024/01/05 08:00:15;;;;;;;7.40;3.25;;;4.40;99.90;;;;;;5009558;28;20069;-48
2024/01/05 08:02:46;;;;;;;10.55;4.55;;;4.40;99.90;;;;;;5015213;28;20042;-52
2024/01/05 08:05:13;;;;;;;17.27;6.63;;;4.50;99.90;;;;;;5008787;28;20247;-48
2024/01/05 08:07:43;;;;;;;12.15;6.60;;;4.60;99.90;;;;;;5012031;28;20343;-53
2024/01/05 08:10:11;;;;;;;11.30;4.95;;;4.60;99.90;;;;;;5012635;28;20038;-55
2024/01/05 08:12:38;;;;;;;12.60;4.53;;;4.70;99.90;;;;;;5009506;28;20432;-49
2024/01/05 08:15:05;;;;;;;9.98;4.40;;;4.80;99.90;;;;;;5011534;28;20042;-50
2024/01/05 08:17:40;;;;;;;9.63;4.68;;;4.80;99.90;;;;;;5013547;28;20038;-54
2024/01/05 08:20:08;;;;;;;11.27;4.50;;;4.80;99.90;;;;;;5012923;28;20108;-50
2024/01/05 08:22:36;;;;;;;12.15;5.20;;;4.90;99.90;;;;;;5004987;28;20049;-49
2024/01/05 08:25:03;;;;;;;11.05;4.32;;;5.00;99.90;;;;;;5008702;28;20049;-51
2024/01/05 08:27:30;;;;;;;9.68;4.20;;;5.10;99.90;;;;;;5010891;28;20431;-54
2024/01/05 08:29:57;;;;;;;9.65;3.47;;;5.10;99.90;;;;;;5013982;28;20532;-50
2024/01/05 08:32:24;;;;;;;7.47;3.03;;;5.10;99.90;;;;;;5012067;28;20107;-55
2024/01/05 08:34:52;;;;;;;9.00;3.75;;;5.20;99.90;;;;;;5017309;28;20099;-50
2024/01/05 08:37:19;;;;;;;9.85;3.58;;;5.20;99.90;;;;;;5013639;28;20054;-49
2024/01/05 08:39:46;;;;;;;7.25;2.90;;;5.30;99.90;;;;;;5010638;28;20081;-51
2024/01/05 08:42:13;;;;;;;7.80;3.47;;;5.40;99.90;;;;;;5017047;28;20081;-52
2024/01/05 08:44:41;;;;;;;10.50;3.47;;;5.50;99.90;;;;;;5013235;28;20052;-55
2024/01/05 08:47:08;;;;;;;6.68;3.00;;;5.60;99.90;;;;;;5015116;28;20050;-53
2024/01/05 08:49:35;;;;;;;6.22;2.85;;;5.70;99.90;;;;;;5014611;28;20041;-51
2024/01/05 08:52:05;;;;;;;5.82;2.70;;;5.80;99.90;;;;;;5013760;28;21316;-52
2024/01/05 08:54:32;;;;;;;7.28;2.63;;;5.90;99.90;;;;;;5007270;28;20046;-52
2024/01/05 08:56:59;;;;;;;7.15;3.10;;;5.90;99.90;;;;;;5012216;28;20140;-50
2024/01/05 08:59:27;;;;;;;8.68;2.75;;;6.00;99.90;;;;;;5016677;28;20046;-54
2024/01/05 09:01:55;;;;;;;7.15;2.90;;;6.10;99.90;;;;;;5014292;28;20038;-56
2024/01/05 09:04:21;;;;;;;5.10;2.65;;;6.20;99.90;;;;;;5013212;28;20049;-56
2024/01/05 09:06:49;;;;;;;7.30;2.75;;;6.30;99.90;;;;;;5014084;28;20121;-52
2024/01/05 09:09:16;;;;;;;6.13;2.78;;;6.40;99.90;;;;;;5018475;28;20659;-53
2024/01/05 09:11:43;;;;;;;6.38;2.83;;;6.50;99.90;;;;;;5012371;28;20046;-51
2024/01/05 09:14:10;;;;;;;5.85;2.60;;;6.60;99.90;;;;;;5012928;28;20096;-55
2024/01/05 09:16:38;;;;;;;8.30;3.88;;;6.70;99.90;;;;;;5016072;28;20506;-49
2024/01/05 09:19:05;;;;;;;8.93;5.10;;;6.80;99.90;;;;;;5017997;28;20502;-56
2024/01/05 09:21:33;;;;;;;13.35;5.00;;;6.90;99.90;;;;;;5015349;28;20042;-51
2024/01/05 09:24:00;;;;;;;12.00;3.33;;;6.90;99.90;;;;;;5016200;28;20073;-52
2024/01/05 09:26:27;;;;;;;7.55;3.50;;;7.00;99.90;;;;;;5009424;28;20041;-50
2024/01/05 09:28:54;;;;;;;7.07;3.35;;;7.10;99.90;;;;;;5019919;28;20077;-56
2024/01/05 09:31:22;;;;;;;6.32;2.75;;;7.20;99.90;;;;;;5013768;28;20458;-51
2024/01/05 09:33:49;;;;;;;7.95;2.90;;;7.20;99.90;;;;;;5016317;28;20056;-53
2024/01/05 09:36:17;;;;;;;8.35;3.85;;;7.30;99.90;;;;;;5014202;28;20127;-50
2024/01/05 09:39:05;;;;;;;10.35;4.53;;;7.40;99.90;;;;;;5006157;28;20399;-49
2024/01/05 09:41:53;;;;;;;6.45;3.15;;;7.50;99.90;;;;;;5011612;28;20073;-49
2024/01/05 09:44:41;;;;;;;7.43;2.70;;;7.50;99.90;;;;;;5010565;28;20499;-54
2024/01/05 09:47:29;;;;;;;9.75;3.30;;;7.50;99.90;;;;;;5013175;28;20054;-55
2024/01/05 09:50:17;;;;;;;9.00;3.58;;;7.40;99.90;;;;;;5012252;28;20049;-50
2024/01/05 09:53:08;;;;;;;7.10;3.05;;;7.40;99.90;;;;;;5004918;28;20057;-53
2024/01/05 09:55:55;;;;;;;8.40;3.55;;;7.40;99.90;;;;;;5016228;28;20038;-52
2024/01/05 09:58:45;;;;;;;8.45;3.88;;;7.50;99.90;;;;;;5010584;28;20538;-53
2024/01/05 10:01:32;;;;;;;6.55;3.15;;;7.50;99.90;;;;;;5009446;28;20122;-51
2024/01/05 10:04:19;;;;;;;8.02;3.25;;;7.50;99.90;;;;;;5009540;28;20081;-52
2024/01/05 10:07:06;;;;;;;11.30;3.35;;;7.60;99.90;;;;;;5014560;28;20509;-53
2024/01/05 10:09:54;;;;;;;8.73;3.22;;;7.70;99.90;;;;;;5013476;28;20543;-52
2024/01/05 10:12:41;;;;;;;5.30;2.90;;;7.70;99.90;;;;;;5015770;28;20062;-55
2024/01/05 10:15:28;;;;;;;5.35;2.70;;;7.70;99.90;;;;;;5012780;28;20135;-51
2024/01/05 10:18:19;;;;;;;11.68;3.08;;;7.70;99.90;;;;;;4997521;28;20057;-49
2024/01/05 10:21:11;;;;;;;5.38;3.08;;;7.70;99.90;;;;;;5008283;28;20125;-47
2024/01/05 10:23:59;;;;;;;5.07;2.78;;;7.90;99.90;;;;;;5017893;28;20057;-49
2024/01/05 10:26:59;;;;;;;5.90;2.80;;;8.10;99.90;;;;;;5010174;28;20056;-54
2024/01/05 10:29:55;;;;;;;6.28;3.00;;;8.30;99.90;;;;;;5011406;28;20149;-54
2024/01/05 10:32:42;;;;;;;5.68;2.70;;;8.20;99.90;;;;;;5009442;28;20141;-54
2024/01/05 10:35:30;;;;;;;7.22;3.53;;;8.30;99.90;;;;;;5014062;28;20058;-55
2024/01/05 10:38:17;;;;;;;9.38;3.70;;;8.30;99.90;;;;;;5014115;28;20394;-51
2024/01/05 10:41:06;;;;;;;6.28;3.25;;;8.50;99.90;;;;;;5009046;28;20478;-56
2024/01/05 10:43:53;;;;;;;6.28;2.85;;;8.60;99.90;;;;;;5012112;28;20050;-51
2024/01/05 10:46:42;;;;;;;5.80;2.50;;;8.70;99.90;;;;;;5013278;28;20041;-54
2024/01/05 10:49:30;;;;;;;5.28;2.92;;;9.00;99.90;;;;;;5008693;28;20273;-52
2024/01/05 10:52:19;;;;;;;8.15;2.95;;;9.20;99.90;;;;;;5009048;28;20050;-55
2024/01/05 10:55:08;;;;;;;6.70;2.95;;;9.30;99.90;;;;;;5007969;28;20056;-55
2024/01/05 10:57:56;;;;;;;9.70;3.35;;;9.10;99.90;;;;;;5011892;28;20045;-52
2024/01/05 11:00:44;;;;;;;7.05;3.08;;;9.00;99.90;;;;;;5006042;28;20531;-51
2024/01/05 11:03:42;;;;;;;6.47;3.45;;;9.10;99.90;;;;;;5009076;28;20578;-52
2024/01/05 11:06:30;;;;;;;5.43;3.05;;;9.00;99.90;;;;;;5010397;28;20045;-51
2024/01/05 11:09:35;;;;;;;9.55;3.35;;;8.90;99.90;;;;;;5009590;28;20060;-52
2024/01/05 11:12:25;;;;;;;10.30;3.38;;;8.90;99.90;;;;;;5010023;28;20142;-52
2024/01/05 11:15:40;;;;;;;8.38;3.40;;;8.90;99.90;;;;;;5007930;28;20459;-55
2024/01/05 11:18:37;;;;;;;6.10;3.58;;;8.90;99.90;;;;;;5032431;28;20400;-53
2024/01/05 11:21:39;;;;;;;6.78;3.50;;;9.00;99.90;;;;;;5008240;28;20482;-55
2024/01/05 11:24:27;;;;;;;6.72;3.13;;;8.90;99.90;;;;;;5010632;28;20066;-53
2024/01/05 11:27:30;;;;;;;10.32;3.40;;;8.80;99.90;;;;;;5001035;28;20053;-55
2024/01/05 11:30:41;;;;;;;7.20;3.35;;;8.70;99.90;;;;;;5007972;28;20057;-50
2024/01/05 11:33:44;;;;;;;7.57;3.67;;;8.70;99.90;;;;;;5010588;28;20046;-53
2024/01/05 11:37:04;;;;;;;8.15;3.67;;;8.60;99.90;;;;;;5010740;28;20141;-54
2024/01/05 11:39:54;;;;;;;9.30;3.80;;;8.70;99.90;;;;;;5004718;28;20053;-50
2024/01/05 11:42:44;;;;;;;8.63;3.63;;;8.80;99.90;;;;;;5011261;28;20053;-53
2024/01/05 11:45:44;;;;;;;7.15;3.60;;;8.90;99.90;;;;;;5010909;28;20042;-51
2024/01/05 11:48:34;;;;;;;9.52;3.97;;;9.00;99.90;;;;;;5010513;28;20057;-49
2024/01/05 11:51:23;;;;;;;;;;;9.00;99.90;;;;;;5012850;28;20144;-50
2024/01/05 11:54:11;;;;;;;9.15;5.30;;;8.90;99.90;;;;;;5014555;28;20485;-51
2024/01/05 11:57:00;;;;;;;8.85;4.13;;;8.90;99.90;;;;;;5010126;28;20776;-53
2024/01/05 11:59:54;;;;;;;8.30;3.70;;;9.10;99.90;;;;;;5018418;28;20054;-55
2024/01/05 12:02:41;;;;;;;8.23;4.13;;;9.40;99.90;;;;;;5016630;28;20506;-49
2024/01/05 12:05:28;;;;;;;6.22;3.00;;;9.60;99.90;;;;;;5020381;28;20054;-51
2024/01/05 12:08:15;;;;;;;8.07;3.63;;;9.60;99.90;;;;;;5014045;28;20415;-52
2024/01/05 12:11:03;;;;;;;9.25;3.75;;;9.80;99.90;;;;;;5014429;28;20045;-48
2024/01/05 12:13:51;;;;;;;8.80;4.10;;;9.80;99.90;;;;;;5016123;28;20056;-55
2024/01/05 12:16:39;;;;;;;8.65;4.10;;;9.70;99.90;;;;;;5014594;28;20060;-51
2024/01/05 12:19:26;;;;;;;8.43;3.97;;;9.70;99.90;;;;;;5015579;28;20147;-54
2024/01/05 12:22:13;;;;;;;8.07;3.88;;;9.70;99.90;;;;;;5039335;28;20103;-50
2024/01/05 12:25:00;;;;;;;7.40;4.10;;;9.70;99.90;;;;;;5014779;28;20057;-54
2024/01/05 12:27:47;;;;;;;10.50;4.20;;;9.70;99.90;;;;;;5000751;28;20041;-51
2024/01/05 12:30:34;;;;;;;9.65;4.18;;;9.70;99.90;;;;;;5015312;28;20045;-55
2024/01/05 12:33:26;;;;;;;7.82;3.95;;;9.70;99.90;;;;;;5012201;28;20045;-55
2024/01/05 12:36:31;;;;;;;9.45;4.60;;;9.70;99.90;;;;;;5015650;28;20549;-51
2024/01/05 12:39:20;;;;;;;10.18;3.90;;;9.80;99.90;;;;;;5011962;28;20533;-52
2024/01/05 12:42:07;;;;;;;9.15;4.25;;;9.80;99.90;;;;;;5014141;28;20506;-54
2024/01/05 12:44:53;;;;;;;8.05;4.22;;;9.80;99.90;;;;;;5023424;28;20109;-54
2024/01/05 12:47:40;;;;;;;6.78;3.85;;;9.80;99.90;;;;;;5012719;28;20041;-57
2024/01/05 12:50:29;;;;;;;9.10;4.32;;;9.80;99.90;;;;;;5009950;28;20054;-55
2024/01/05 12:53:18;;;;;;;9.77;4.55;;;9.80;99.90;;;;;;5016502;28;20135;-52
2024/01/05 12:56:12;;;;;;;10.88;4.18;;;9.80;99.90;;;;;;5007425;28;20091;-52
2024/01/05 12:59:02;;;;;;;10.88;4.72;;;9.70;99.90;;;;;;5012665;28;20504;-51
2024/01/05 13:01:59;;;;;;;9.95;4.13;;;9.70;99.90;;;;;;5011689;28;20041;-55
2024/01/05 13:04:47;;;;;;;9.30;4.47;;;9.70;99.90;;;;;;5035207;28;20054;-55
2024/01/05 13:07:34;;;;;;;8.75;4.35;;;9.60;99.90;;;;;;5015200;28;20520;-50
2024/01/05 13:10:22;;;;;;;12.00;4.90;;;9.60;99.90;;;;;;5011744;28;20062;-54
2024/01/05 13:13:09;;;;;;;11.10;4.93;;;9.70;99.90;;;;;;5004975;28;20054;-51
2024/01/05 13:15:56;;;;;;;11.05;4.50;;;9.70;99.90;;;;;;5015104;28;20376;-54
2024/01/05 13:18:43;;;;;;;10.05;4.43;;;9.60;99.90;;;;;;5034958;28;20084;-55
2024/01/05 13:21:30;;;;;;;8.88;4.00;;;9.60;99.90;;;;;;5013569;28;20064;-57
2024/01/05 13:24:18;;;;;;;9.57;3.85;;;9.50;99.90;;;;;;5008080;28;20123;-52
2024/01/05 13:27:05;;;;;;;9.30;4.10;;;9.50;99.90;;;;;;5015706;28;20049;-51